createdAt,value
2023-01-08T00:01:15.402Z,98523.91
2023-01-08T00:03:42.783Z,98516.19
2023-01-08T00:06:12.950Z,98522.84
2023-01-08T00:08:39.907Z,98508.13
2023-01-08T00:11:06.978Z,98503.81
2023-01-08T00:13:33.733Z,98490.53
2023-01-08T00:16:09.873Z,98518.50
2023-01-08T00:18:36.796Z,98481.16
2023-01-08T00:21:04.277Z,98505.50
2023-01-08T00:23:31.650Z,98501.78
2023-01-08T00:26:02.257Z,98478.06
2023-01-08T00:28:29.665Z,98497.69
2023-01-08T00:30:56.415Z,98508.88
2023-01-08T00:33:23.082Z,98502.78
2023-01-08T00:35:49.932Z,98483.03
2023-01-08T00:38:16.854Z,98445.38
2023-01-08T00:40:43.469Z,98500.97
2023-01-08T00:43:10.072Z,98500.97
2023-01-08T00:45:36.862Z,98499.16
2023-01-08T00:48:03.717Z,98492.19
2023-01-08T00:50:30.305Z,98471.94
2023-01-08T00:52:57.228Z,98490.41
2023-01-08T00:55:23.890Z,98468.91
2023-01-08T00:57:50.528Z,98438.41
2023-01-08T01:00:17.350Z,98446.63
2023-01-08T01:02:44.613Z,98411.47
2023-01-08T01:05:15.462Z,98478.13
2023-01-08T01:07:43.336Z,98461.38
2023-01-08T01:10:11.879Z,98480.78
2023-01-08T01:12:39.145Z,98486.06
2023-01-08T01:15:08.520Z,98480.03
2023-01-08T01:17:37.725Z,98477.31
2023-01-08T01:20:05.170Z,98452.31
2023-01-08T01:22:32.120Z,98447.78
2023-01-08T01:24:58.959Z,98477.38
2023-01-08T01:27:26.340Z,98451.88
2023-01-08T01:29:53.769Z,98465.38
2023-01-08T01:32:20.645Z,98476.56
2023-01-08T01:34:47.255Z,98463.91
2023-01-08T01:37:14.703Z,98429.84
2023-01-08T01:39:46.633Z,98439.97
2023-01-08T01:42:37.076Z,98455.56
2023-01-08T01:45:16.708Z,98449.41
2023-01-08T01:47:47.768Z,98442.47
2023-01-08T01:50:18.187Z,98445.09
2023-01-08T01:52:50.982Z,98435.50
2023-01-08T01:55:18.650Z,98430.22
2023-01-08T01:57:52.783Z,98428.84
2023-01-08T02:00:20.256Z,98436.44
2023-01-08T02:02:46.822Z,98433.81
2023-01-08T02:05:13.673Z,98420.91
2023-01-08T02:07:52.564Z,98427.66
2023-01-08T02:10:37.088Z,98420.72
2023-01-08T02:13:26.434Z,98236.13
2023-01-08T02:16:05.405Z,98408.53
2023-01-08T02:18:46.502Z,98413.81
2023-01-08T02:22:43.053Z,98412.16
2023-01-08T02:25:40.700Z,98407.84
2023-01-08T02:28:11.592Z,98391.94
2023-01-08T02:30:38.638Z,98407.09
2023-01-08T02:33:05.321Z,98406.28
2023-01-08T02:35:39.742Z,98407.09
2023-01-08T02:38:06.770Z,98400.13
2023-01-08T02:40:42.227Z,98393.88
2023-01-08T02:43:21.724Z,98397.47
2023-01-08T02:45:57.219Z,98396.66
2023-01-08T02:48:47.605Z,98402.88
2023-01-08T02:51:20.523Z,98407.34
2023-01-08T02:53:51.080Z,98402.06
2023-01-08T02:56:26.283Z,98403.84
2023-01-08T02:58:54.197Z,98390.13
2023-01-08T03:01:24.309Z,98371.78
2023-01-08T03:03:58.244Z,98409.56
2023-01-08T03:06:26.494Z,98407.25
2023-01-08T03:08:54.066Z,98407.88
2023-01-08T03:11:23.695Z,98375.59
2023-01-08T03:14:05.361Z,98397.09
2023-01-08T03:16:41.973Z,98392.75
2023-01-08T03:19:15.394Z,98371.47
2023-01-08T03:21:44.553Z,98390.25
2023-01-08T03:24:14.981Z,98378.66
2023-01-08T03:26:44.800Z,98390.25
2023-01-08T03:29:14.987Z,98385.91
2023-01-08T03:31:44.027Z,98339.53
2023-01-08T03:34:12.276Z,98326.78
2023-01-08T03:36:44.105Z,98370.19
2023-01-08T03:39:26.378Z,98378.94
2023-01-08T03:41:59.502Z,98338.47
2023-01-08T03:44:26.286Z,98376.41
2023-01-08T03:46:55.465Z,98364.19
2023-01-08T03:49:24.803Z,98345.50
2023-01-08T03:51:51.433Z,98352.25
2023-01-08T03:54:23.666Z,98359.84
2023-01-08T03:56:50.209Z,98356.38
2023-01-08T03:59:17.539Z,98351.91
2023-01-08T04:01:44.497Z,98334.84
2023-01-08T04:04:11.976Z,98328.91
2023-01-08T04:06:38.717Z,98302.16
2023-01-08T04:09:05.271Z,98337.56
2023-01-08T04:11:32.076Z,98334.63
2023-01-08T04:13:58.838Z,98331.47
2023-01-08T04:16:25.681Z,98298.59
2023-01-08T04:18:52.207Z,98326.38
2023-01-08T04:21:18.910Z,98328.91
2023-01-08T04:23:45.641Z,98309.75
2023-01-08T04:26:12.324Z,98327.56
2023-01-08T04:28:39.659Z,98312.00
2023-01-08T04:31:10.106Z,98347.22
2023-01-08T04:33:37.021Z,98338.53
2023-01-08T04:36:04.743Z,98334.09
2023-01-08T04:38:31.463Z,98343.78
2023-01-08T04:41:02.312Z,98334.09
2023-01-08T04:43:30.112Z,98341.16
2023-01-08T04:46:07.596Z,98339.47
2023-01-08T04:48:34.804Z,98339.47
2023-01-08T04:51:03.184Z,98316.59
2023-01-08T04:53:32.995Z,98322.63
2023-01-08T04:56:08.677Z,98337.06
2023-01-08T04:58:36.645Z,98339.59
2023-01-08T05:01:29.707Z,98337.06
2023-01-08T05:03:59.296Z,98330.09
2023-01-08T05:06:26.778Z,98323.56
2023-01-08T05:08:53.534Z,98331.91
2023-01-08T05:11:20.572Z,98311.56
2023-01-08T05:13:51.670Z,98332.13
2023-01-08T05:16:18.704Z,98330.22
2023-01-08T05:18:45.675Z,98335.50
2023-01-08T05:21:13.755Z,98320.81
2023-01-08T05:23:40.663Z,98324.06
2023-01-08T05:26:07.670Z,98319.75
2023-01-08T05:28:34.933Z,98294.25
2023-01-08T05:31:01.677Z,98276.47
2023-01-08T05:33:28.430Z,98304.91
2023-01-08T05:35:55.049Z,98289.22
2023-01-08T05:38:21.707Z,98282.38
2023-01-08T05:40:48.386Z,98303.31
2023-01-08T05:43:14.936Z,98236.56
2023-01-08T05:45:41.659Z,98259.19
2023-01-08T05:48:08.509Z,98294.66
2023-01-08T05:50:35.897Z,98279.72
2023-01-08T05:55:12.939Z,98256.75
2023-01-08T05:57:39.591Z,98289.50
2023-01-08T06:00:11.581Z,98282.75
2023-01-08T06:02:38.655Z,98289.84
2023-01-08T06:05:05.539Z,98262.59
2023-01-08T06:07:32.243Z,98306.41
2023-01-08T06:09:58.789Z,98298.38
2023-01-08T06:12:25.320Z,98301.22
2023-01-08T06:14:51.921Z,98305.44
2023-01-08T06:17:18.575Z,98299.53
2023-01-08T06:19:47.319Z,98278.78
2023-01-08T06:22:14.219Z,98281.50
2023-01-08T06:24:40.782Z,98268.56
2023-01-08T06:27:07.494Z,98256.03
2023-01-08T06:29:34.146Z,98283.81
2023-01-08T06:32:00.878Z,98262.34
2023-01-08T06:34:27.399Z,98259.19
2023-01-08T06:36:54.144Z,98261.09
2023-01-08T06:39:20.780Z,98277.81
2023-01-08T06:41:47.491Z,98278.53
2023-01-08T06:44:14.147Z,98284.75
2023-01-08T06:46:40.974Z,98284.75
2023-01-08T06:49:08.047Z,98281.63
2023-01-08T06:51:35.046Z,98289.22
2023-01-08T06:54:02.259Z,98284.88
2023-01-08T06:56:28.915Z,98276.47
2023-01-08T06:58:55.541Z,98283.44
2023-01-08T07:01:23.096Z,98281.63
2023-01-08T07:03:49.849Z,98248.03
2023-01-08T07:06:19.150Z,98279.44
2023-01-08T07:08:46.435Z,98297.47
2023-01-08T07:11:14.124Z,98271.53
2023-01-08T07:13:40.693Z,98259.09
2023-01-08T07:16:12.867Z,98289.34
2023-01-08T07:18:40.080Z,98272.38
2023-01-08T07:21:08.243Z,98250.56
2023-01-08T07:23:35.632Z,98270.56
2023-01-08T07:26:03.509Z,98255.19
2023-01-08T07:28:30.660Z,98277.22
2023-01-08T07:30:57.319Z,98258.34
2023-01-08T07:33:24.073Z,98218.03
2023-01-08T07:35:55.251Z,98240.31
2023-01-08T07:38:22.758Z,98221.69
2023-01-08T07:40:52.368Z,98255.25
2023-01-08T07:43:19.077Z,98260.75
2023-01-08T07:45:46.042Z,98257.38
2023-01-08T07:48:16.462Z,98253.47
2023-01-08T07:50:44.475Z,98257.06
2023-01-08T07:53:12.940Z,98241.75
2023-01-08T07:55:39.799Z,98250.22
2023-01-08T07:58:13.839Z,98253.47
2023-01-08T08:00:41.282Z,98235.66
2023-01-08T08:03:11.626Z,98223.75
2023-01-08T08:05:39.019Z,98229.56
2023-01-08T08:08:12.701Z,98234.84
2023-01-08T08:10:40.333Z,98229.44
2023-01-08T08:13:07.462Z,98233.75
2023-01-08T08:15:35.819Z,98235.00
2023-01-08T08:18:02.921Z,98232.34
2023-01-08T08:20:29.884Z,98208.34
2023-01-08T08:23:14.363Z,98223.38
2023-01-08T08:25:42.819Z,98206.44
2023-01-08T08:28:11.559Z,98153.88
2023-01-08T08:30:42.008Z,98202.34
2023-01-08T08:33:10.210Z,98203.09
2023-01-08T08:35:37.701Z,98209.19
2023-01-08T08:38:05.022Z,98180.16
2023-01-08T08:40:31.891Z,98167.75
2023-01-08T08:43:01.101Z,98192.53
2023-01-08T08:45:28.529Z,98196.88
2023-01-08T08:47:55.802Z,98196.88
2023-01-08T08:50:22.716Z,98195.94
2023-01-08T08:52:49.431Z,98166.34
2023-01-08T08:55:17.245Z,98189.16
2023-01-08T08:57:45.493Z,98187.28
2023-01-08T09:00:13.616Z,98185.56
2023-01-08T09:02:40.437Z,98181.25
2023-01-08T09:05:07.412Z,98171.16
2023-01-08T09:07:34.198Z,98177.03
2023-01-08T09:10:00.782Z,98190.41
2023-01-08T09:12:27.487Z,98191.25
2023-01-08T09:14:54.917Z,98177.53
2023-01-08T09:17:21.741Z,98172.25
2023-01-08T09:19:48.563Z,98185.97
2023-01-08T09:22:15.243Z,98184.06
2023-01-08T09:24:41.749Z,98157.63
2023-01-08T09:27:11.241Z,98155.94
2023-01-08T09:29:37.928Z,98171.72
2023-01-08T09:32:08.500Z,98136.78
2023-01-08T09:34:38.620Z,98164.63
2023-01-08T09:37:05.613Z,98156.72
2023-01-08T09:39:32.350Z,98141.47
2023-01-08T09:42:05.825Z,98147.84
2023-01-08T09:44:42.124Z,98130.78
2023-01-08T09:47:34.486Z,98131.88
2023-01-08T09:50:05.049Z,98111.00
2023-01-08T09:52:32.038Z,98115.56
2023-01-08T09:55:00.392Z,98119.56
2023-01-08T09:57:29.149Z,98108.59
2023-01-08T09:59:55.817Z,98115.09
2023-01-08T10:02:25.124Z,98105.63
2023-01-08T10:04:56.790Z,98120.38
2023-01-08T10:07:25.856Z,98099.13
2023-01-08T10:09:53.604Z,98108.88
2023-01-08T10:12:29.760Z,98103.72
2023-01-08T10:15:03.379Z,98087.88
2023-01-08T10:17:38.428Z,98078.16
2023-01-08T10:20:13.780Z,98071.19
2023-01-08T10:22:40.655Z,98067.59
2023-01-08T10:25:13.461Z,98047.69
2023-01-08T10:27:57.164Z,98055.28
2023-01-08T10:30:34.359Z,98039.44
2023-01-08T10:33:12.121Z,98032.00
2023-01-08T10:35:41.649Z,98048.19
2023-01-08T10:38:25.679Z,98035.34
2023-01-08T10:40:52.738Z,98026.72
2023-01-08T10:43:32.369Z,98004.63
2023-01-08T10:46:02.851Z,98029.59
2023-01-08T10:48:46.293Z,98024.44
2023-01-08T10:51:20.136Z,97870.50
2023-01-08T10:53:47.252Z,98004.41
2023-01-08T10:56:21.745Z,98016.25
2023-01-08T10:58:49.070Z,98017.25
2023-01-08T11:01:23.376Z,98021.53
2023-01-08T11:04:01.825Z,98008.34
2023-01-08T11:06:36.229Z,98010.03
2023-01-08T11:09:19.540Z,98004.16
2023-01-08T11:11:46.174Z,97990.97
2023-01-08T11:14:27.873Z,97997.69
2023-01-08T11:16:55.297Z,97983.53
2023-01-08T11:19:33.173Z,97978.16
2023-01-08T11:22:18.758Z,97981.63
2023-01-08T11:24:46.696Z,97993.38
2023-01-08T11:27:13.172Z,97996.84
2023-01-08T11:30:04.396Z,97989.78
2023-01-08T11:32:52.791Z,97985.31
2023-01-08T11:35:26.688Z,97981.88
2023-01-08T11:37:59.612Z,97974.16
2023-01-08T11:40:50.065Z,97968.19
2023-01-08T11:43:50.927Z,97974.78
2023-01-08T11:46:20.692Z,97969.84
2023-01-08T11:48:54.886Z,97973.94
2023-01-08T11:51:58.830Z,97971.31
2023-01-08T11:54:59.639Z,97966.84
2023-01-08T11:57:29.054Z,97957.25
2023-01-08T12:00:17.385Z,97963.41
2023-01-08T12:02:57.753Z,97962.53
2023-01-08T12:05:36.625Z,97957.25
2023-01-08T12:08:26.405Z,97956.44
2023-01-08T12:10:53.027Z,97943.22
2023-01-08T12:13:41.620Z,97937.97
2023-01-08T12:16:17.124Z,97941.31
2023-01-08T12:19:17.197Z,97919.72
2023-01-08T12:22:01.474Z,97874.06
2023-01-08T12:24:48.927Z,97914.06
2023-01-08T12:27:29.814Z,97918.41
2023-01-08T12:30:28.001Z,97920.91
2023-01-08T12:33:17.436Z,97915.63
2023-01-08T12:35:50.253Z,97903.53
2023-01-08T12:38:38.020Z,97897.78
2023-01-08T12:44:04.060Z,97897.28
2023-01-08T12:46:34.263Z,97898.84
2023-01-08T12:49:02.079Z,97899.78
2023-01-08T12:51:32.574Z,97895.38
2023-01-08T12:54:20.759Z,97878.94
2023-01-08T12:57:04.427Z,97876.31
2023-01-08T12:59:48.432Z,97880.38
2023-01-08T13:02:33.612Z,97883.00
2023-01-08T13:05:30.734Z,97886.59
2023-01-08T13:08:05.258Z,97831.28
2023-01-08T13:10:31.867Z,97891.88
2023-01-08T13:13:01.855Z,97858.22
2023-01-08T13:15:31.241Z,97884.22
2023-01-08T13:18:16.839Z,97874.84
2023-01-08T13:20:56.066Z,97890.34
2023-01-08T13:23:28.050Z,97886.72
2023-01-08T13:25:56.994Z,97890.09
2023-01-08T13:28:35.621Z,97890.09
2023-01-08T13:31:29.008Z,97883.88
2023-01-08T13:33:55.986Z,97901.47
2023-01-08T13:36:26.513Z,97891.78
2023-01-08T13:39:06.100Z,97894.41
2023-01-08T13:41:37.137Z,97865.66
2023-01-08T13:44:05.346Z,97897.75
2023-01-08T13:46:38.304Z,97892.97
2023-01-08T13:49:08.107Z,97888.78
2023-01-08T13:51:43.910Z,97910.94
2023-01-08T13:54:14.018Z,97899.94
2023-01-08T13:56:43.646Z,97893.81
2023-01-08T13:59:31.771Z,97907.63
2023-01-08T14:02:01.460Z,97895.88
2023-01-08T14:04:29.066Z,97885.81
2023-01-08T14:07:12.849Z,97879.06
2023-01-08T14:09:39.639Z,97893.31
2023-01-08T14:12:09.070Z,97872.13
2023-01-08T14:14:39.077Z,97892.97
2023-01-08T14:17:06.886Z,97901.16
2023-01-08T14:19:33.896Z,97911.44
2023-01-08T14:22:04.044Z,97914.22
2023-01-08T14:24:30.867Z,97909.06
2023-01-08T14:26:59.896Z,97893.81
2023-01-08T14:29:34.553Z,97900.41
2023-01-08T14:32:01.949Z,97901.16
2023-01-08T14:34:32.257Z,97904.75
2023-01-08T14:36:59.077Z,97909.16
2023-01-08T14:39:33.523Z,97900.53
2023-01-08T14:42:47.369Z,97899.59
2023-01-08T14:45:20.485Z,97913.75
2023-01-08T14:47:50.677Z,97871.53
2023-01-08T14:50:33.817Z,97892.03
2023-01-08T14:53:24.758Z,97898.13
2023-01-08T14:55:53.685Z,97889.53
2023-01-08T14:58:30.860Z,97891.31
2023-01-08T15:01:02.321Z,97893.94
2023-01-08T15:03:35.134Z,97898.41
2023-01-08T15:06:01.951Z,97892.25
2023-01-08T15:08:40.486Z,97885.44
2023-01-08T15:11:19.321Z,97892.38
2023-01-08T15:13:48.215Z,97903.91
2023-01-08T15:16:30.737Z,97890.72
2023-01-08T15:19:13.966Z,97890.72
2023-01-08T15:21:47.379Z,97734.09
2023-01-08T15:24:34.973Z,97893.47
2023-01-08T15:27:09.782Z,97886.28
2023-01-08T15:29:59.832Z,97902.81
2023-01-08T15:32:34.083Z,97894.91
2023-01-08T15:35:01.709Z,97893.94
2023-01-08T15:37:28.283Z,97895.84
2023-01-08T15:39:54.831Z,97885.19
2023-01-08T15:42:47.622Z,97878.13
2023-01-08T15:45:28.468Z,97873.78
2023-01-08T15:47:55.507Z,97857.16
2023-01-08T15:52:49.245Z,97848.63
2023-01-08T15:55:19.715Z,97858.81
2023-01-08T15:57:46.486Z,97852.34
2023-01-08T16:00:15.074Z,97852.22
2023-01-08T16:02:46.396Z,97828.84
2023-01-08T16:05:14.435Z,97843.00
2023-01-08T16:07:41.218Z,97843.94
2023-01-08T16:12:28.394Z,97856.28
2023-01-08T16:14:54.992Z,97836.75
2023-01-08T16:17:22.696Z,97851.88
2023-01-08T16:19:49.550Z,97847.53
2023-01-08T16:22:16.816Z,97851.13
2023-01-08T16:24:43.955Z,97826.34
2023-01-08T16:27:10.778Z,97851.25
2023-01-08T16:29:37.635Z,97846.94
2023-01-08T16:32:04.499Z,97837.84
2023-01-08T16:34:31.703Z,97853.03
2023-01-08T16:36:58.277Z,97851.41
2023-01-08T16:39:25.003Z,97839.28
2023-01-08T16:41:51.650Z,97840.94
2023-01-08T16:44:24.379Z,97826.47
2023-01-08T16:46:52.423Z,97834.84
2023-01-08T16:49:19.003Z,97826.59
2023-01-08T16:51:45.723Z,97819.38
2023-01-08T16:54:13.939Z,97828.75
2023-01-08T16:56:40.683Z,97827.28
2023-01-08T16:59:18.287Z,97835.78
2023-01-08T17:01:49.623Z,97812.22
2023-01-08T17:04:16.383Z,97826.19
2023-01-08T17:06:43.046Z,97827.53
2023-01-08T17:09:11.517Z,97834.25
2023-01-08T17:11:38.711Z,97834.25
2023-01-08T17:14:05.446Z,97842.16
2023-01-08T17:16:32.156Z,97846.59
2023-01-08T17:18:58.709Z,97845.75
2023-01-08T17:21:25.439Z,97831.38
2023-01-08T17:23:52.079Z,97847.56
2023-01-08T17:26:21.100Z,97839.19
2023-01-08T17:28:47.658Z,97844.19
2023-01-08T17:31:20.064Z,97830.53
2023-01-08T17:33:50.677Z,97838.09
2023-01-08T17:36:27.661Z,97835.47
2023-01-08T17:38:54.456Z,97808.50
2023-01-08T17:41:41.248Z,97833.78
2023-01-08T17:44:09.882Z,97820.81
2023-01-08T17:46:39.689Z,97828.72
2023-01-08T17:51:25.178Z,97831.28
2023-01-08T17:53:51.857Z,97832.09
2023-01-08T17:56:18.572Z,97805.28
2023-01-08T17:58:45.913Z,97817.25
2023-01-08T18:01:13.496Z,97828.13
2023-01-08T18:03:40.205Z,97830.91
2023-01-08T18:06:11.470Z,97828.50
2023-01-08T18:08:38.908Z,97824.91
2023-01-08T18:11:07.899Z,97831.13
2023-01-08T18:13:35.102Z,97811.00
2023-01-08T18:16:06.670Z,97831.88
2023-01-08T18:20:45.356Z,97831.59
2023-01-08T18:23:12.110Z,97824.78
2023-01-08T18:25:41.508Z,97834.25
2023-01-08T18:28:11.103Z,97831.59
2023-01-08T18:30:37.916Z,97825.13
2023-01-08T18:33:04.546Z,97827.78
2023-01-08T18:35:32.605Z,97837.84
2023-01-08T18:37:59.300Z,97825.50
2023-01-08T18:40:26.005Z,97816.41
2023-01-08T18:42:52.679Z,97826.47
2023-01-08T18:45:19.667Z,97814.59
2023-01-08T18:47:46.402Z,97832.69
2023-01-08T18:50:13.279Z,97795.06
2023-01-08T18:52:41.400Z,97817.81
2023-01-08T18:55:08.438Z,97803.22
2023-01-08T18:57:35.129Z,97812.69
2023-01-08T19:00:03.523Z,97804.16
2023-01-08T19:02:36.096Z,97802.13
2023-01-08T19:05:03.036Z,97802.13
2023-01-08T19:07:32.850Z,97782.25
2023-01-08T19:10:01.216Z,97783.78
2023-01-08T19:12:30.782Z,97773.50
2023-01-08T19:15:04.036Z,97773.25
2023-01-08T19:17:32.145Z,97796.13
2023-01-08T19:19:59.123Z,97753.97
2023-01-08T19:22:28.724Z,97754.56
2023-01-08T19:24:56.441Z,97764.59
2023-01-08T19:27:23.852Z,97754.78
2023-01-08T19:29:53.385Z,97767.38
2023-01-08T19:32:20.285Z,97779.59
2023-01-08T19:34:47.205Z,97747.75
2023-01-08T19:37:14.896Z,97764.84
2023-01-08T19:39:41.547Z,97758.50
2023-01-08T19:42:29.007Z,97744.81
2023-01-08T19:44:56.366Z,97747.97
2023-01-08T19:47:23.357Z,97752.38
2023-01-08T19:49:50.284Z,97748.78
2023-01-08T19:52:17.941Z,97728.69
2023-01-08T19:54:45.690Z,97754.88
2023-01-08T19:57:12.493Z,97753.34
2023-01-08T19:59:39.222Z,97756.69
2023-01-08T20:02:05.983Z,97744.22
2023-01-08T20:04:36.039Z,97734.50
2023-01-08T20:07:02.693Z,97740.25
2023-01-08T20:09:29.480Z,97714.38
2023-01-08T20:11:59.005Z,97725.84
2023-01-08T20:14:25.624Z,97703.31
2023-01-08T20:16:52.899Z,97720.19
2023-01-08T20:19:19.686Z,97727.50
2023-01-08T20:21:46.430Z,97719.19
2023-01-08T20:26:36.120Z,97725.75
2023-01-08T20:29:03.624Z,97703.34
2023-01-08T20:31:31.295Z,97711.34
2023-01-08T20:33:59.539Z,97720.81
2023-01-08T20:36:33.353Z,97707.28
2023-01-08T20:39:03.500Z,97720.47
2023-01-08T20:41:33.457Z,97709.22
2023-01-08T20:44:06.370Z,97694.22
2023-01-08T20:46:35.653Z,97696.91
2023-01-08T20:49:05.297Z,97701.94
2023-01-08T20:51:33.753Z,97693.91
2023-01-08T20:54:01.745Z,97692.94
2023-01-08T20:56:35.393Z,97689.19
2023-01-08T20:59:02.857Z,97682.94
2023-01-08T21:01:36.667Z,97673.81
2023-01-08T21:04:05.761Z,97679.91
2023-01-08T21:06:34.191Z,97678.22
2023-01-08T21:09:06.994Z,97661.13
2023-01-08T21:11:35.849Z,97661.25
2023-01-08T21:14:03.065Z,97666.03
2023-01-08T21:16:31.032Z,97649.47
2023-01-08T21:18:58.939Z,97661.00
2023-01-08T21:21:34.810Z,97662.81
2023-01-08T21:24:08.690Z,97647.47
2023-01-08T21:26:39.571Z,97654.03
2023-01-08T21:29:07.457Z,97652.34
2023-01-08T21:31:36.213Z,97638.97
2023-01-08T21:34:07.403Z,97644.56
2023-01-08T21:36:34.282Z,97639.28
2023-01-08T21:39:02.068Z,97634.16
2023-01-08T21:41:48.532Z,97625.06
2023-01-08T21:44:35.187Z,97631.75
2023-01-08T21:47:03.644Z,97632.59
2023-01-08T21:49:31.753Z,97626.03
2023-01-08T21:52:17.404Z,97613.34
2023-01-08T21:54:43.994Z,97619.06
2023-01-08T21:57:10.760Z,97601.22
2023-01-08T21:59:37.558Z,97623.72
2023-01-08T22:02:05.372Z,97623.44
2023-01-08T22:04:32.560Z,97612.66
2023-01-08T22:06:59.253Z,97599.97
2023-01-08T22:09:26.146Z,97607.94
2023-01-08T22:11:56.065Z,97603.34
2023-01-08T22:14:23.353Z,97532.00
2023-01-08T22:16:52.662Z,97594.47
2023-01-08T22:19:19.391Z,97590.84
2023-01-08T22:21:46.201Z,97592.97
2023-01-08T22:24:12.799Z,97512.56
2023-01-08T22:26:39.297Z,97561.38
2023-01-08T22:29:06.573Z,97586.34
2023-01-08T22:31:34.081Z,97570.31
2023-01-08T22:34:01.083Z,97571.84
2023-01-08T22:36:27.871Z,97562.00
2023-01-08T22:38:54.494Z,97563.66
2023-01-08T22:41:23.242Z,97574.81
2023-01-08T22:43:55.852Z,97555.75
2023-01-08T22:46:23.861Z,97570.25
2023-01-08T22:48:50.485Z,97565.53
2023-01-08T22:51:17.580Z,97561.94
2023-01-08T22:53:44.184Z,97532.00
2023-01-08T22:56:14.872Z,97547.06
2023-01-08T22:58:45.270Z,97551.94
2023-01-08T23:01:18.064Z,97494.56
2023-01-08T23:03:49.060Z,97558.75
2023-01-08T23:06:17.321Z,97492.63
2023-01-08T23:08:45.291Z,97500.31
2023-01-08T23:11:13.992Z,97477.63
2023-01-08T23:13:41.233Z,97503.13
2023-01-08T23:16:09.894Z,97517.72
2023-01-08T23:18:37.565Z,97492.97
2023-01-08T23:21:07.032Z,97487.97
2023-01-08T23:23:33.909Z,97431.75
2023-01-08T23:26:10.345Z,97505.09
2023-01-08T23:29:33.921Z,97475.44
2023-01-08T23:32:00.852Z,97498.69
2023-01-08T23:34:27.494Z,97461.81
2023-01-08T23:36:54.182Z,97442.75
2023-01-08T23:39:21.400Z,97482.59
2023-01-08T23:41:48.004Z,97482.59
2023-01-08T23:44:15.951Z,97456.69
2023-01-08T23:46:42.895Z,97409.13
2023-01-08T23:49:10.192Z,97476.22
2023-01-08T23:51:37.566Z,97419.56
2023-01-08T23:54:04.395Z,97451.13
2023-01-08T23:56:31.702Z,97459.41
2023-01-08T23:58:58.386Z,97424.44
